sensor_id;sensor_type;location;lat;lon;timestamp;pressure;altitude;pressure_sealevel;temperature;humidity
57859;BME280;49153;45.568;11.894;2023-01-26T00:01:00;101770.72;;;3.74;75.18
57859;BME280;49153;45.568;11.894;2023-01-26T00:03:31;101753.41;;;3.70;75.27
57859;BME280;49153;45.568;11.894;2023-01-26T00:05:56;101755.00;;;3.76;75.10
57859;BME280;49153;45.568;11.894;2023-01-26T00:08:21;101760.91;;;3.82;75.60
57859;BME280;49153;45.568;11.894;2023-01-26T00:10:47;101762.63;;;3.83;75.44
57859;BME280;49153;45.568;11.894;2023-01-26T00:13:17;101765.13;;;3.87;75.58
57859;BME280;49153;45.568;11.894;2023-01-26T00:15:46;101752.09;;;3.87;75.36
57859;BME280;49153;45.568;11.894;2023-01-26T00:18:13;101752.09;;;3.87;75.71
57859;BME280;49153;45.568;11.894;2023-01-26T00:20:39;101745.25;;;3.82;75.83
57859;BME280;49153;45.568;11.894;2023-01-26T00:23:04;101729.59;;;3.82;75.96
57859;BME280;49153;45.568;11.894;2023-01-26T00:25:30;101727.00;;;3.81;75.55
57859;BME280;49153;45.568;11.894;2023-01-26T00:27:55;101728.69;;;3.83;75.30
57859;BME280;49153;45.568;11.894;2023-01-26T00:30:22;101736.44;;;3.87;76.30
57859;BME280;49153;45.568;11.894;2023-01-26T00:32:47;101731.41;;;3.80;76.09
57859;BME280;49153;45.568;11.894;2023-01-26T00:35:13;101745.09;;;3.89;75.33
57859;BME280;49153;45.568;11.894;2023-01-26T00:37:41;101737.22;;;3.90;75.93
57859;BME280;49153;45.568;11.894;2023-01-26T00:40:09;101734.44;;;3.96;75.54
57859;BME280;49153;45.568;11.894;2023-01-26T00:42:34;101729.16;;;3.98;75.50
57859;BME280;49153;45.568;11.894;2023-01-26T00:45:00;101730.00;;;4.00;75.32
57859;BME280;49153;45.568;11.894;2023-01-26T00:47:25;101732.38;;;4.07;76.07
57859;BME280;49153;45.568;11.894;2023-01-26T00:49:50;101718.59;;;4.02;75.22
57859;BME280;49153;45.568;11.894;2023-01-26T00:52:16;101727.25;;;4.04;75.74
57859;BME280;49153;45.568;11.894;2023-01-26T00:54:41;101729.81;;;4.06;75.63
57859;BME280;49153;45.568;11.894;2023-01-26T00:57:07;101728.06;;;4.06;75.06
57859;BME280;49153;45.568;11.894;2023-01-26T00:59:32;101710.97;;;3.96;75.76
57859;BME280;49153;45.568;11.894;2023-01-26T01:01:58;101728.81;;;4.10;75.66
57859;BME280;49153;45.568;11.894;2023-01-26T01:04:26;101721.88;;;4.09;74.99
57859;BME280;49153;45.568;11.894;2023-01-26T01:06:54;101721.84;;;4.10;75.70
57859;BME280;49153;45.568;11.894;2023-01-26T01:09:19;101716.78;;;4.06;75.37
57859;BME280;49153;45.568;11.894;2023-01-26T01:11:44;101705.66;;;3.98;74.71
57859;BME280;49153;45.568;11.894;2023-01-26T01:14:11;101713.34;;;4.04;74.98
57859;BME280;49153;45.568;11.894;2023-01-26T01:16:37;101709.16;;;3.97;74.84
57859;BME280;49153;45.568;11.894;2023-01-26T01:19:03;101687.66;;;3.89;75.17
57859;BME280;49153;45.568;11.894;2023-01-26T01:21:28;101712.56;;;4.00;74.62
57859;BME280;49153;45.568;11.894;2023-01-26T01:23:53;101703.13;;;3.96;74.52
57859;BME280;49153;45.568;11.894;2023-01-26T01:26:19;101703.00;;;4.01;74.76
57859;BME280;49153;45.568;11.894;2023-01-26T01:28:44;101715.88;;;4.07;75.08
57859;BME280;49153;45.568;11.894;2023-01-26T01:31:13;101704.59;;;4.05;74.73
57859;BME280;49153;45.568;11.894;2023-01-26T01:33:39;101694.16;;;4.05;74.44
57859;BME280;49153;45.568;11.894;2023-01-26T01:36:07;101698.50;;;4.06;74.13
57859;BME280;49153;45.568;11.894;2023-01-26T01:38:34;101688.09;;;4.04;74.39
57859;BME280;49153;45.568;11.894;2023-01-26T01:40:59;101688.94;;;4.05;74.59
57859;BME280;49153;45.568;11.894;2023-01-26T01:43:26;101685.63;;;4.00;74.95
57859;BME280;49153;45.568;11.894;2023-01-26T01:45:53;101689.97;;;3.99;74.70
57859;BME280;49153;45.568;11.894;2023-01-26T01:48:47;101692.63;;;3.98;74.71
57859;BME280;49153;45.568;11.894;2023-01-26T01:51:19;101675.53;;;3.86;74.60
57859;BME280;49153;45.568;11.894;2023-01-26T01:53:47;101685.69;;;3.97;74.96
57859;BME280;49153;45.568;11.894;2023-01-26T01:56:20;101673.56;;;3.96;74.62
57859;BME280;49153;45.568;11.894;2023-01-26T01:58:49;101676.97;;;3.98;74.61
57859;BME280;49153;45.568;11.894;2023-01-26T02:01:17;101658.06;;;3.90;74.53
57859;BME280;49153;45.568;11.894;2023-01-26T02:03:43;101682.19;;;3.98;74.68
57859;BME280;49153;45.568;11.894;2023-01-26T02:06:25;101682.19;;;3.98;74.85
57859;BME280;49153;45.568;11.894;2023-01-26T02:08:53;101673.56;;;3.96;74.97
57859;BME280;49153;45.568;11.894;2023-01-26T02:11:23;101672.69;;;3.95;75.44
57859;BME280;49153;45.568;11.894;2023-01-26T02:13:50;101670.88;;;3.97;75.37
57859;BME280;49153;45.568;11.894;2023-01-26T02:16:17;101676.06;;;3.99;75.49
57859;BME280;49153;45.568;11.894;2023-01-26T02:18:43;101662.13;;;4.00;75.06
57859;BME280;49153;45.568;11.894;2023-01-26T02:21:13;101661.16;;;4.02;75.04
57859;BME280;49153;45.568;11.894;2023-01-26T02:26:19;101661.06;;;4.07;74.97
57859;BME280;49153;45.568;11.894;2023-01-26T02:28:46;101655.72;;;4.10;75.43
57859;BME280;49153;45.568;11.894;2023-01-26T02:31:12;101650.50;;;4.10;74.61
57859;BME280;49153;45.568;11.894;2023-01-26T02:33:38;101655.63;;;4.13;75.20
57859;BME280;49153;45.568;11.894;2023-01-26T02:36:05;101643.38;;;4.15;75.37
57859;BME280;49153;45.568;11.894;2023-01-26T02:41:25;101638.78;;;4.23;74.81
57859;BME280;49153;45.568;11.894;2023-01-26T02:44:10;101636.16;;;4.23;74.63
57859;BME280;49153;45.568;11.894;2023-01-26T02:46:36;101633.38;;;4.29;74.86
57859;BME280;49153;45.568;11.894;2023-01-26T02:49:02;101635.09;;;4.30;74.71
57859;BME280;49153;45.568;11.894;2023-01-26T02:51:46;101624.63;;;4.30;74.77
57859;BME280;49153;45.568;11.894;2023-01-26T02:54:11;101616.00;;;4.28;74.22
57859;BME280;49153;45.568;11.894;2023-01-26T02:56:57;101609.94;;;4.28;74.65
57859;BME280;49153;45.568;11.894;2023-01-26T02:59:22;101615.00;;;4.32;74.58
57859;BME280;49153;45.568;11.894;2023-01-26T03:01:49;101610.66;;;4.33;74.98
57859;BME280;49153;45.568;11.894;2023-01-26T03:04:16;101608.81;;;4.35;74.66
57859;BME280;49153;45.568;11.894;2023-01-26T03:06:42;101597.50;;;4.34;74.49
57859;BME280;49153;45.568;11.894;2023-01-26T03:09:07;101595.84;;;4.33;74.76
57859;BME280;49153;45.568;11.894;2023-01-26T03:11:32;101588.19;;;4.27;74.50
57859;BME280;49153;45.568;11.894;2023-01-26T03:14:07;101579.38;;;4.30;74.53
57859;BME280;49153;45.568;11.894;2023-01-26T03:16:32;101570.81;;;4.26;74.79
57859;BME280;49153;45.568;11.894;2023-01-26T03:18:58;101582.78;;;4.33;74.36
57859;BME280;49153;45.568;11.894;2023-01-26T03:21:29;101576.69;;;4.33;74.22
57859;BME280;49153;45.568;11.894;2023-01-26T03:24:15;101576.63;;;4.34;74.95
57859;BME280;49153;45.568;11.894;2023-01-26T03:26:59;101564.50;;;4.33;74.37
57859;BME280;49153;45.568;11.894;2023-01-26T03:29:44;101565.22;;;4.37;74.79
57859;BME280;49153;45.568;11.894;2023-01-26T03:32:10;101561.63;;;4.41;74.55
57859;BME280;49153;45.568;11.894;2023-01-26T03:34:35;101567.59;;;4.44;74.63
57859;BME280;49153;45.568;11.894;2023-01-26T03:37:01;101562.34;;;4.44;74.38
57859;BME280;49153;45.568;11.894;2023-01-26T03:39:26;101548.59;;;4.39;74.85
57859;BME280;49153;45.568;11.894;2023-01-26T03:42:11;101557.06;;;4.47;74.38
57859;BME280;49153;45.568;11.894;2023-01-26T03:44:55;101552.84;;;4.43;74.16
57859;BME280;49153;45.568;11.894;2023-01-26T03:47:39;101560.59;;;4.45;74.13
57859;BME280;49153;45.568;11.894;2023-01-26T03:50:23;101541.72;;;4.37;74.03
57859;BME280;49153;45.568;11.894;2023-01-26T03:53:15;101544.19;;;4.41;74.62
57859;BME280;49153;45.568;11.894;2023-01-26T03:55:59;101547.50;;;4.46;74.33
57859;BME280;49153;45.568;11.894;2023-01-26T03:58:45;101535.41;;;4.44;74.25
57859;BME280;49153;45.568;11.894;2023-01-26T04:01:12;101538.03;;;4.44;74.97
57859;BME280;49153;45.568;11.894;2023-01-26T04:03:44;101537.00;;;4.48;74.83
57859;BME280;49153;45.568;11.894;2023-01-26T04:06:28;101536.16;;;4.47;74.88
57859;BME280;49153;45.568;11.894;2023-01-26T04:09:12;101538.75;;;4.47;74.69
57859;BME280;49153;45.568;11.894;2023-01-26T04:11:39;101526.66;;;4.45;74.85
57859;BME280;49153;45.568;11.894;2023-01-26T04:14:05;101532.03;;;4.40;74.97
57859;BME280;49153;45.568;11.894;2023-01-26T04:16:49;101519.09;;;4.37;74.78
57859;BME280;49153;45.568;11.894;2023-01-26T04:19:33;101519.03;;;4.39;74.54
57859;BME280;49153;45.568;11.894;2023-01-26T04:22:16;101527.56;;;4.44;74.89
57859;BME280;49153;45.568;11.894;2023-01-26T04:24:42;101517.06;;;4.45;74.53
57859;BME280;49153;45.568;11.894;2023-01-26T04:27:07;101504.84;;;4.46;74.35
57859;BME280;49153;45.568;11.894;2023-01-26T04:29:33;101503.09;;;4.46;74.38
57859;BME280;49153;45.568;11.894;2023-01-26T04:31:58;101487.69;;;4.39;74.37
57859;BME280;49153;45.568;11.894;2023-01-26T04:34:23;101502.25;;;4.46;74.69
57859;BME280;49153;45.568;11.894;2023-01-26T04:36:49;101499.53;;;4.49;75.30
57859;BME280;49153;45.568;11.894;2023-01-26T04:39:14;101492.44;;;4.52;74.79
57859;BME280;49153;45.568;11.894;2023-01-26T04:41:40;101492.44;;;4.52;74.26
57859;BME280;49153;45.568;11.894;2023-01-26T04:44:05;101483.88;;;4.49;74.80
57859;BME280;49153;45.568;11.894;2023-01-26T04:46:31;101492.44;;;4.52;75.00
57859;BME280;49153;45.568;11.894;2023-01-26T04:48:57;101488.06;;;4.53;75.37
57859;BME280;49153;45.568;11.894;2023-01-26T04:51:23;101491.47;;;4.55;75.30
57859;BME280;49153;45.568;11.894;2023-01-26T04:53:49;101489.84;;;4.52;75.30
57859;BME280;49153;45.568;11.894;2023-01-26T04:56:43;101485.63;;;4.48;75.33
57859;BME280;49153;45.568;11.894;2023-01-26T04:59:09;101486.59;;;4.44;76.11
57859;BME280;49153;45.568;11.894;2023-01-26T05:01:35;101481.50;;;4.41;75.99
57859;BME280;49153;45.568;11.894;2023-01-26T05:04:02;101485.09;;;4.39;76.40
57859;BME280;49153;45.568;11.894;2023-01-26T05:06:28;101487.78;;;4.36;75.96
57859;BME280;49153;45.568;11.894;2023-01-26T05:08:54;101477.50;;;4.31;76.69
57859;BME280;49153;45.568;11.894;2023-01-26T05:11:20;101480.22;;;4.28;76.58
57859;BME280;49153;45.568;11.894;2023-01-26T05:13:45;101466.44;;;4.23;76.98
57859;BME280;49153;45.568;11.894;2023-01-26T05:16:11;101473.38;;;4.24;77.15
57859;BME280;49153;45.568;11.894;2023-01-26T05:18:39;101467.41;;;4.20;76.35
57859;BME280;49153;45.568;11.894;2023-01-26T05:21:04;101461.59;;;4.12;77.21
57859;BME280;49153;45.568;11.894;2023-01-26T05:23:30;101469.34;;;4.14;77.34
57859;BME280;49153;45.568;11.894;2023-01-26T05:25:55;101471.88;;;4.17;77.07
57859;BME280;49153;45.568;11.894;2023-01-26T05:28:21;101469.28;;;4.17;76.77
57859;BME280;49153;45.568;11.894;2023-01-26T05:30:46;101477.59;;;4.28;77.19
57859;BME280;49153;45.568;11.894;2023-01-26T05:33:12;101471.53;;;4.28;76.63
57859;BME280;49153;45.568;11.894;2023-01-26T05:35:37;101479.28;;;4.29;76.81
57859;BME280;49153;45.568;11.894;2023-01-26T05:38:03;101472.28;;;4.31;76.62
57859;BME280;49153;45.568;11.894;2023-01-26T05:40:28;101476.59;;;4.32;76.69
57859;BME280;49153;45.568;11.894;2023-01-26T05:42:54;101475.81;;;4.29;76.44
57859;BME280;49153;45.568;11.894;2023-01-26T05:45:20;101479.28;;;4.29;76.56
57859;BME280;49153;45.568;11.894;2023-01-26T05:47:45;101475.03;;;4.27;76.83
57859;BME280;49153;45.568;11.894;2023-01-26T05:50:12;101475.97;;;4.24;76.23
57859;BME280;49153;45.568;11.894;2023-01-26T05:52:37;101475.34;;;4.17;76.68
57859;BME280;49153;45.568;11.894;2023-01-26T05:55:04;101477.19;;;4.14;76.33
57859;BME280;49153;45.568;11.894;2023-01-26T05:57:30;101477.19;;;4.14;76.98
57859;BME280;49153;45.568;11.894;2023-01-26T05:59:56;101473.78;;;4.12;77.21
57859;BME280;49153;45.568;11.894;2023-01-26T06:02:21;101477.47;;;4.06;76.77
57859;BME280;49153;45.568;11.894;2023-01-26T06:04:47;101471.53;;;4.01;76.97
57859;BME280;49153;45.568;11.894;2023-01-26T06:07:13;101466.34;;;4.00;77.23
57859;BME280;49153;45.568;11.894;2023-01-26T06:09:39;101477.59;;;4.02;76.70
57859;BME280;49153;45.568;11.894;2023-01-26T06:12:06;101476.09;;;3.95;76.91
57859;BME280;49153;45.568;11.894;2023-01-26T06:14:31;101475.47;;;3.87;76.91
57859;BME280;49153;45.568;11.894;2023-01-26T06:16:57;101468.75;;;3.79;77.66
57859;BME280;49153;45.568;11.894;2023-01-26T06:19:22;101468.75;;;3.79;77.48
57859;BME280;49153;45.568;11.894;2023-01-26T06:21:47;101462.66;;;3.79;76.97
57859;BME280;49153;45.568;11.894;2023-01-26T06:24:13;101468.81;;;3.76;77.51
57859;BME280;49153;45.568;11.894;2023-01-26T06:26:38;101462.00;;;3.72;77.87
57859;BME280;49153;45.568;11.894;2023-01-26T06:29:05;101460.09;;;3.77;77.69
57859;BME280;49153;45.568;11.894;2023-01-26T06:31:30;101462.72;;;3.77;77.68
57859;BME280;49153;45.568;11.894;2023-01-26T06:33:56;101461.06;;;3.75;77.64
57859;BME280;49153;45.568;11.894;2023-01-26T06:36:22;101467.34;;;3.69;77.33
57859;BME280;49153;45.568;11.894;2023-01-26T06:38:49;101466.69;;;3.61;77.25
57859;BME280;49153;45.568;11.894;2023-01-26T06:41:15;101467.88;;;3.51;76.92
57859;BME280;49153;45.568;11.894;2023-01-26T06:43:45;101462.78;;;3.48;77.68
57859;BME280;49153;45.568;11.894;2023-01-26T06:46:11;101462.66;;;3.51;78.47
57859;BME280;49153;45.568;11.894;2023-01-26T06:48:37;101451.28;;;3.54;78.44
57859;BME280;49153;45.568;11.894;2023-01-26T06:53:51;101458.88;;;3.61;78.21
57859;BME280;49153;45.568;11.894;2023-01-26T06:56:17;101457.94;;;3.64;78.46
57859;BME280;49153;45.568;11.894;2023-01-26T06:58:43;101459.56;;;3.66;77.82
57859;BME280;49153;45.568;11.894;2023-01-26T07:01:13;101446.97;;;3.53;77.90
57859;BME280;49153;45.568;11.894;2023-01-26T07:03:40;101465.31;;;3.50;77.68
57859;BME280;49153;45.568;11.894;2023-01-26T07:06:05;101462.84;;;3.45;77.62
57859;BME280;49153;45.568;11.894;2023-01-26T07:08:32;101459.44;;;3.43;77.90
57859;BME280;49153;45.568;11.894;2023-01-26T07:10:57;101449.09;;;3.40;77.97
57859;BME280;49153;45.568;11.894;2023-01-26T07:13:22;101449.97;;;3.39;78.88
57859;BME280;49153;45.568;11.894;2023-01-26T07:15:48;101443.81;;;3.43;79.08
57859;BME280;49153;45.568;11.894;2023-01-26T07:18:13;101446.41;;;3.43;79.12
57859;BME280;49153;45.568;11.894;2023-01-26T07:20:38;101459.34;;;3.46;78.20
57859;BME280;49153;45.568;11.894;2023-01-26T07:23:04;101458.44;;;3.47;78.87
57859;BME280;49153;45.568;11.894;2023-01-26T07:25:29;101450.66;;;3.46;79.42
57859;BME280;49153;45.568;11.894;2023-01-26T07:27:58;101454.22;;;3.43;78.62
57859;BME280;49153;45.568;11.894;2023-01-26T07:30:24;101459.34;;;3.46;78.75
57859;BME280;49153;45.568;11.894;2023-01-26T07:32:50;101450.63;;;3.47;78.60
57859;BME280;49153;45.568;11.894;2023-01-26T07:35:15;101456.50;;;3.54;79.04
57859;BME280;49153;45.568;11.894;2023-01-26T07:37:41;101451.09;;;3.60;78.97
57859;BME280;49153;45.568;11.894;2023-01-26T07:40:07;101453.56;;;3.64;79.62
57859;BME280;49153;45.568;11.894;2023-01-26T07:42:32;101445.78;;;3.63;79.75
57859;BME280;49153;45.568;11.894;2023-01-26T07:44:58;101436.88;;;3.70;79.63
57859;BME280;49153;45.568;11.894;2023-01-26T07:47:24;101455.50;;;3.86;79.93
57859;BME280;49153;45.568;11.894;2023-01-26T07:49:49;101447.56;;;3.89;79.85
57859;BME280;49153;45.568;11.894;2023-01-26T07:52:15;101453.31;;;4.00;79.98
57859;BME280;49153;45.568;11.894;2023-01-26T07:54:40;101452.22;;;4.07;78.97
57859;BME280;49153;45.568;11.894;2023-01-26T07:57:06;101451.16;;;4.12;78.56
57859;BME280;49153;45.568;11.894;2023-01-26T07:59:32;101449.97;;;4.21;78.74
57859;BME280;49153;45.568;11.894;2023-01-26T08:01:58;101437.00;;;4.18;78.68
57859;BME280;49153;45.568;11.894;2023-01-26T08:04:23;101454.72;;;4.35;78.03
57859;BME280;49153;45.568;11.894;2023-01-26T08:06:51;101456.28;;;4.40;77.12
57859;BME280;49153;45.568;11.894;2023-01-26T08:09:17;101459.59;;;4.45;77.41
57859;BME280;49153;45.568;11.894;2023-01-26T08:11:42;101454.38;;;4.45;77.08
57859;BME280;49153;45.568;11.894;2023-01-26T08:14:08;101450.66;;;4.52;76.93
57859;BME280;49153;45.568;11.894;2023-01-26T08:16:33;101455.53;;;4.61;76.95
57859;BME280;49153;45.568;11.894;2023-01-26T08:18:58;101447.66;;;4.63;77.29
57859;BME280;49153;45.568;11.894;2023-01-26T08:21:24;101451.69;;;4.72;76.77
57859;BME280;49153;45.568;11.894;2023-01-26T08:23:50;101461.94;;;4.78;75.93
57859;BME280;49153;45.568;11.894;2023-01-26T08:26:16;101453.38;;;4.74;75.42
57859;BME280;49153;45.568;11.894;2023-01-26T08:28:42;101456.50;;;4.84;75.25
57859;BME280;49153;45.568;11.894;2023-01-26T08:31:10;101465.03;;;4.89;74.61
57859;BME280;49153;45.568;11.894;2023-01-26T08:33:37;101463.94;;;4.94;73.16
57859;BME280;49153;45.568;11.894;2023-01-26T08:36:04;101460.44;;;4.95;73.29
57859;BME280;49153;45.568;11.894;2023-01-26T08:38:31;101462.88;;;5.00;72.79
57859;BME280;49153;45.568;11.894;2023-01-26T08:40:58;101455.16;;;4.97;72.21
57859;BME280;49153;45.568;11.894;2023-01-26T08:43:24;101462.53;;;5.09;73.76
57859;BME280;49153;45.568;11.894;2023-01-26T08:45:49;101458.66;;;5.19;72.79
57859;BME280;49153;45.568;11.894;2023-01-26T08:48:15;101466.47;;;5.21;71.66
57859;BME280;49153;45.568;11.894;2023-01-26T08:50:40;101432.31;;;5.02;70.69
57859;BME280;49153;45.568;11.894;2023-01-26T08:53:06;101461.06;;;5.25;70.66
57859;BME280;49153;45.568;11.894;2023-01-26T08:55:33;101460.88;;;5.30;71.27
57859;BME280;49153;45.568;11.894;2023-01-26T08:57:59;101462.53;;;5.32;69.45
57859;BME280;49153;45.568;11.894;2023-01-26T09:00:25;101460.69;;;5.34;70.17
57859;BME280;49153;45.568;11.894;2023-01-26T09:02:57;101464.94;;;5.38;68.70
57859;BME280;49153;45.568;11.894;2023-01-26T09:05:23;101461.16;;;5.45;70.13
57859;BME280;49153;45.568;11.894;2023-01-26T09:07:48;101458.88;;;5.60;70.83
57859;BME280;49153;45.568;11.894;2023-01-26T09:10:13;101448.03;;;5.69;69.57
57859;BME280;49153;45.568;11.894;2023-01-26T09:12:39;101454.59;;;5.79;70.80
57859;BME280;49153;45.568;11.894;2023-01-26T09:15:05;101452.56;;;5.87;69.43
57859;BME280;49153;45.568;11.894;2023-01-26T09:17:31;101450.63;;;5.92;66.91
57859;BME280;49153;45.568;11.894;2023-01-26T09:19:56;101455.88;;;5.92;68.78
57859;BME280;49153;45.568;11.894;2023-01-26T09:22:21;101461.50;;;6.03;68.97
57859;BME280;49153;45.568;11.894;2023-01-26T09:24:47;101462.34;;;6.04;67.29
57859;BME280;49153;45.568;11.894;2023-01-26T09:27:12;101464.63;;;6.13;67.18
57859;BME280;49153;45.568;11.894;2023-01-26T09:29:38;101463.50;;;6.18;67.73
57859;BME280;49153;45.568;11.894;2023-01-26T09:32:03;101449.56;;;6.18;67.55
57859;BME280;49153;45.568;11.894;2023-01-26T09:34:29;101466.41;;;6.32;67.51
57859;BME280;49153;45.568;11.894;2023-01-26T09:36:54;101472.97;;;6.43;68.00
57859;BME280;49153;45.568;11.894;2023-01-26T09:39:20;101464.69;;;6.52;66.58
57859;BME280;49153;45.568;11.894;2023-01-26T09:44:24;101464.44;;;6.58;65.02
57859;BME280;49153;45.568;11.894;2023-01-26T09:47:05;101466.66;;;6.67;66.34
57859;BME280;49153;45.568;11.894;2023-01-26T09:52:15;101460.25;;;6.74;63.96
57859;BME280;49153;45.568;11.894;2023-01-26T09:54:45;101459.06;;;6.81;65.34
57859;BME280;49153;45.568;11.894;2023-01-26T09:57:17;101457.00;;;6.88;63.67
57859;BME280;49153;45.568;11.894;2023-01-26T10:00:05;101448.94;;;6.92;62.16
57859;BME280;49153;45.568;11.894;2023-01-26T10:05:44;101451.91;;;7.03;63.61
57859;BME280;49153;45.568;11.894;2023-01-26T10:08:14;101447.19;;;7.11;62.49
57859;BME280;49153;45.568;11.894;2023-01-26T10:10:57;101444.13;;;7.20;61.89
57859;BME280;49153;45.568;11.894;2023-01-26T10:13:25;101439.97;;;7.16;61.55
57859;BME280;49153;45.568;11.894;2023-01-26T10:15:54;101445.00;;;7.21;61.88
57859;BME280;49153;45.568;11.894;2023-01-26T10:18:29;101439.94;;;7.35;63.59
57859;BME280;49153;45.568;11.894;2023-01-26T10:21:00;101433.28;;;7.47;62.38
57859;BME280;49153;45.568;11.894;2023-01-26T10:23:31;101428.44;;;7.56;60.72
57859;BME280;49153;45.568;11.894;2023-01-26T10:26:06;101425.53;;;7.62;61.88
57859;BME280;49153;45.568;11.894;2023-01-26T10:28:35;101423.47;;;7.69;60.72
57859;BME280;49153;45.568;11.894;2023-01-26T10:31:07;101404.94;;;7.72;60.99
57859;BME280;49153;45.568;11.894;2023-01-26T10:33:38;101414.00;;;7.84;58.80
57859;BME280;49153;45.568;11.894;2023-01-26T10:36:07;101413.13;;;7.83;59.53
57859;BME280;49153;45.568;11.894;2023-01-26T10:43:57;101400.03;;;8.00;59.32
57859;BME280;49153;45.568;11.894;2023-01-26T10:46:41;101401.06;;;7.98;59.15
57859;BME280;49153;45.568;11.894;2023-01-26T10:51:33;101392.47;;;8.12;60.01
57859;BME280;49153;45.568;11.894;2023-01-26T10:54:22;101393.78;;;8.20;59.01
57859;BME280;49153;45.568;11.894;2023-01-26T10:57:03;101381.34;;;8.24;59.16
57859;BME280;49153;45.568;11.894;2023-01-26T10:59:38;101382.50;;;8.35;58.54
57859;BME280;49153;45.568;11.894;2023-01-26T11:04:36;101361.56;;;8.51;58.71
57859;BME280;49153;45.568;11.894;2023-01-26T11:09:49;101360.44;;;8.55;58.93
57859;BME280;49153;45.568;11.894;2023-01-26T11:12:20;101358.84;;;8.68;56.62
57859;BME280;49153;45.568;11.894;2023-01-26T11:15:04;101354.81;;;8.78;58.29
57859;BME280;49153;45.568;11.894;2023-01-26T11:17:37;101347.69;;;8.80;56.70
57859;BME280;49153;45.568;11.894;2023-01-26T11:20:22;101333.28;;;8.87;57.19
57859;BME280;49153;45.568;11.894;2023-01-26T11:28:38;101321.06;;;8.86;56.66
57859;BME280;49153;45.568;11.894;2023-01-26T11:36:37;101313.41;;;9.29;56.27
57859;BME280;49153;45.568;11.894;2023-01-26T11:39:11;101305.16;;;9.35;57.07
57859;BME280;49153;45.568;11.894;2023-01-26T11:41:45;101299.75;;;9.52;56.91
57859;BME280;49153;45.568;11.894;2023-01-26T11:55:30;101275.06;;;9.99;55.58
57859;BME280;49153;45.568;11.894;2023-01-26T12:03:40;101262.13;;;10.24;53.16
57859;BME280;49153;45.568;11.894;2023-01-26T12:06:14;101262.47;;;10.18;53.98
57859;BME280;49153;45.568;11.894;2023-01-26T12:09:02;101238.91;;;10.01;52.61
57859;BME280;49153;45.568;11.894;2023-01-26T12:11:34;101251.13;;;10.02;53.02
57859;BME280;49153;45.568;11.894;2023-01-26T12:14:14;101235.31;;;10.02;53.63
57859;BME280;49153;45.568;11.894;2023-01-26T12:16:49;101234.09;;;10.07;53.85
57859;BME280;49153;45.568;11.894;2023-01-26T12:22:01;101224.72;;;10.18;53.63
57859;BME280;49153;45.568;11.894;2023-01-26T12:24:39;101214.44;;;10.27;53.87
57859;BME280;49153;45.568;11.894;2023-01-26T12:27:13;101211.53;;;10.18;52.68
57859;BME280;49153;45.568;11.894;2023-01-26T12:32:15;101204.09;;;10.24;52.74
57859;BME280;49153;45.568;11.894;2023-01-26T12:34:41;101213.88;;;10.22;52.05
57859;BME280;49153;45.568;11.894;2023-01-26T12:37:16;101218.69;;;10.30;53.15
57859;BME280;49153;45.568;11.894;2023-01-26T12:39:59;101207.78;;;10.36;52.58
57859;BME280;49153;45.568;11.894;2023-01-26T12:42:47;101201.81;;;10.46;52.45
57859;BME280;49153;45.568;11.894;2023-01-26T12:45:24;101197.09;;;10.51;52.96
57859;BME280;49153;45.568;11.894;2023-01-26T12:47:55;101189.84;;;10.55;52.33
57859;BME280;49153;45.568;11.894;2023-01-26T12:50:28;101179.50;;;10.52;50.44
57859;BME280;49153;45.568;11.894;2023-01-26T12:58:03;101178.09;;;10.32;52.08
57859;BME280;49153;45.568;11.894;2023-01-26T13:00:33;101180.59;;;10.48;52.47
57859;BME280;49153;45.568;11.894;2023-01-26T13:03:21;101173.53;;;10.48;51.00
57859;BME280;49153;45.568;11.894;2023-01-26T13:16:56;101168.34;;;10.20;50.34
57859;BME280;49153;45.568;11.894;2023-01-26T13:27:27;101158.34;;;10.25;52.07
57859;BME280;49153;45.568;11.894;2023-01-26T13:29:54;101146.44;;;10.32;51.96
57859;BME280;49153;45.568;11.894;2023-01-26T13:34:48;101145.38;;;10.49;50.52
57859;BME280;49153;45.568;11.894;2023-01-26T13:37:25;101135.69;;;10.49;50.52
57859;BME280;49153;45.568;11.894;2023-01-26T13:39:59;101133.53;;;10.42;50.32
57859;BME280;49153;45.568;11.894;2023-01-26T13:42:31;101141.72;;;10.37;50.54
57859;BME280;49153;45.568;11.894;2023-01-26T13:45:13;101141.34;;;10.43;50.99
57859;BME280;49153;45.568;11.894;2023-01-26T13:47:43;101139.81;;;10.53;50.48
57859;BME280;49153;45.568;11.894;2023-01-26T13:50:34;101146.47;;;10.59;51.22
57859;BME280;49153;45.568;11.894;2023-01-26T13:53:43;101140.81;;;10.65;50.99
57859;BME280;49153;45.568;11.894;2023-01-26T13:56:27;101146.53;;;10.72;51.10
57859;BME280;49153;45.568;11.894;2023-01-26T13:58:53;101138.31;;;10.76;51.10
57859;BME280;49153;45.568;11.894;2023-01-26T14:01:19;101127.38;;;10.55;48.41
57859;BME280;49153;45.568;11.894;2023-01-26T14:03:45;101139.84;;;10.39;49.32
57859;BME280;49153;45.568;11.894;2023-01-26T14:06:17;101142.28;;;10.42;50.01
57859;BME280;49153;45.568;11.894;2023-01-26T14:08:50;101135.88;;;10.46;49.12
57859;BME280;49153;45.568;11.894;2023-01-26T14:11:19;101135.47;;;10.26;49.00
57859;BME280;49153;45.568;11.894;2023-01-26T14:13:49;101130.19;;;10.26;50.57
57859;BME280;49153;45.568;11.894;2023-01-26T14:16:31;101137.13;;;10.41;50.69
57859;BME280;49153;45.568;11.894;2023-01-26T14:19:04;101134.19;;;10.45;50.61
57859;BME280;49153;45.568;11.894;2023-01-26T14:21:30;101131.34;;;10.48;49.13
57859;BME280;49153;45.568;11.894;2023-01-26T14:23:59;101123.31;;;10.23;48.45
57859;BME280;49153;45.568;11.894;2023-01-26T14:26:29;101129.53;;;10.08;49.88
57859;BME280;49153;45.568;11.894;2023-01-26T14:28:56;101127.63;;;10.10;49.94